Time;durP1;ratioP1;P1;durP2;ratioP2;P2;SDS_P1;SDS_P2;PMS_P1;PMS_P2;Temp;Humidity;BMP_temperature;BMP_pressure;BME280_temperature;BME280_humidity;BME280_pressure;Samples;Min_cycle;Max_cycle;Signal;HPM_P1;HPM_P2
2021/06/21 00:01:56;;;;;;;2.80;2.53;;;23.60;99.90;;;;;;4877686;29;20393;-80
2021/06/21 00:04:22;;;;;;;3.25;2.60;;;23.40;99.90;;;;;;4874672;29;20403;-79
2021/06/21 00:06:48;;;;;;;3.60;2.90;;;23.40;99.90;;;;;;4864719;29;21054;-80
2021/06/21 00:09:13;;;;;;;3.20;2.90;;;23.50;99.90;;;;;;4857368;29;20407;-79
2021/06/21 00:11:39;;;;;;;3.17;2.65;;;23.40;99.90;;;;;;4872194;29;20500;-80
2021/06/21 00:14:05;;;;;;;4.50;3.10;;;23.40;99.90;;;;;;4858946;29;20494;-78
2021/06/21 00:16:31;;;;;;;6.20;3.13;;;23.40;99.90;;;;;;4867494;29;20432;-80
2021/06/21 00:18:57;;;;;;;5.80;2.97;;;23.30;99.90;;;;;;4864121;29;20407;-80
2021/06/21 00:21:22;;;;;;;4.60;3.33;;;23.30;99.90;;;;;;4867766;29;20411;-78
2021/06/21 00:23:48;;;;;;;3.20;2.63;;;23.20;99.90;;;;;;4866969;29;20403;-79
2021/06/21 00:26:14;;;;;;;2.92;2.55;;;23.20;99.90;;;;;;4879322;29;20911;-79
2021/06/21 00:28:40;;;;;;;4.13;3.15;;;23.20;99.90;;;;;;4879640;29;20446;-78
2021/06/21 00:31:06;;;;;;;3.28;2.75;;;23.10;99.90;;;;;;4874447;29;20456;-78
2021/06/21 00:33:32;;;;;;;3.22;2.92;;;23.10;99.90;;;;;;4862182;29;20498;-78
2021/06/21 00:35:58;;;;;;;7.20;3.45;;;23.10;99.90;;;;;;4856474;29;20431;-79
2021/06/21 00:38:23;;;;;;;4.70;3.22;;;23.00;99.90;;;;;;4879002;29;21012;-80
2021/06/21 00:40:49;;;;;;;5.05;3.03;;;23.00;99.90;;;;;;4873868;29;20476;-79
2021/06/21 00:43:15;;;;;;;4.10;3.20;;;23.10;99.90;;;;;;4862797;29;20445;-79
2021/06/21 00:45:41;;;;;;;3.58;3.10;;;22.90;99.90;;;;;;4877025;29;20419;-80
2021/06/21 00:48:07;;;;;;;5.43;3.20;;;23.10;99.90;;;;;;4867353;29;20433;-81
2021/06/21 00:50:33;;;;;;;4.65;3.45;;;23.00;99.90;;;;;;4897185;29;20488;-80
2021/06/21 00:53:00;;;;;;;4.03;3.28;;;22.90;99.90;;;;;;4864949;29;20484;-79
2021/06/21 00:55:26;;;;;;;4.17;3.70;;;23.10;99.90;;;;;;4868659;29;20424;-80
2021/06/21 00:57:52;;;;;;;4.67;3.80;;;22.90;99.90;;;;;;4854699;29;20405;-78
2021/06/21 01:00:19;;;;;;;4.03;3.60;;;22.90;99.90;;;;;;4868000;29;20413;-78
2021/06/21 01:02:45;;;;;;;3.45;3.15;;;23.00;99.90;;;;;;4861001;29;20401;-78
2021/06/21 01:05:16;;;;;;;4.50;3.75;;;23.00;99.90;;;;;;4876241;29;20418;-81
2021/06/21 01:07:42;;;;;;;3.95;3.38;;;22.90;99.90;;;;;;4890773;29;20486;-78
2021/06/21 01:10:11;;;;;;;3.83;3.10;;;22.90;99.90;;;;;;4851489;29;20980;-79
2021/06/21 01:12:46;;;;;;;3.85;3.50;;;22.90;99.90;;;;;;4861346;29;20413;-79
2021/06/21 01:15:17;;;;;;;4.18;3.45;;;22.80;99.90;;;;;;4896294;29;20426;-79
2021/06/21 01:18:06;;;;;;;5.30;4.10;;;22.90;99.90;;;;;;4889293;29;20428;-79
2021/06/21 01:21:03;;;;;;;5.45;3.63;;;22.90;99.90;;;;;;4874509;29;20419;-79
2021/06/21 01:23:58;;;;;;;4.77;3.53;;;22.80;99.90;;;;;;4889293;29;20950;-79
2021/06/21 01:26:36;;;;;;;4.15;3.45;;;22.80;99.90;;;;;;4878642;29;20429;-81
2021/06/21 01:29:27;;;;;;;4.30;3.53;;;22.80;99.90;;;;;;4861501;29;20403;-79
2021/06/21 01:32:24;;;;;;;3.95;3.53;;;22.80;99.90;;;;;;4875584;29;20424;-80
2021/06/21 01:34:51;;;;;;;4.63;3.70;;;22.70;99.90;;;;;;4846260;29;20407;-79
2021/06/21 01:37:18;;;;;;;3.63;3.28;;;22.70;99.90;;;;;;4883402;29;20757;-79
2021/06/21 01:39:47;;;;;;;4.15;3.42;;;22.70;99.90;;;;;;4859158;29;20406;-80
2021/06/21 01:42:15;;;;;;;4.22;3.42;;;22.60;99.90;;;;;;4872049;29;20402;-79
2021/06/21 01:44:47;;;;;;;4.28;3.88;;;22.60;99.90;;;;;;4861638;29;20466;-80
2021/06/21 01:47:14;;;;;;;4.95;3.90;;;22.60;99.90;;;;;;4880477;29;20407;-80
2021/06/21 01:49:43;;;;;;;5.63;3.60;;;22.60;99.90;;;;;;4856257;29;20401;-81
2021/06/21 01:52:10;;;;;;;3.90;3.27;;;22.60;99.90;;;;;;4893012;29;20409;-79
2021/06/21 01:54:37;;;;;;;5.63;4.32;;;22.60;99.90;;;;;;4865157;29;20488;-80
2021/06/21 01:57:03;;;;;;;7.32;4.40;;;22.70;99.90;;;;;;4856127;29;20418;-80
2021/06/21 01:59:29;;;;;;;6.47;4.88;;;22.70;99.90;;;;;;4874274;29;20441;-80
2021/06/21 02:01:57;;;;;;;4.73;3.93;;;22.70;99.90;;;;;;4880057;29;20405;-80
2021/06/21 02:04:23;;;;;;;4.43;3.78;;;22.60;99.90;;;;;;4859605;29;20408;-80
2021/06/21 02:06:49;;;;;;;5.80;4.17;;;22.90;99.90;;;;;;4867609;29;20782;-80
2021/06/21 02:09:17;;;;;;;4.20;3.80;;;22.90;99.90;;;;;;4883963;29;20399;-79
2021/06/21 02:11:43;;;;;;;5.25;3.67;;;22.90;99.90;;;;;;4871419;29;20779;-84
2021/06/21 02:14:09;;;;;;;4.20;3.83;;;23.00;99.90;;;;;;4861510;29;20409;-80
2021/06/21 02:16:35;;;;;;;4.03;3.65;;;22.90;99.90;;;;;;4872802;29;20470;-79
2021/06/21 02:19:01;;;;;;;4.85;3.83;;;22.90;99.90;;;;;;4853134;29;20414;-83
2021/06/21 02:21:27;;;;;;;6.78;4.75;;;23.10;99.90;;;;;;4884377;29;20401;-83
2021/06/21 02:23:53;;;;;;;7.72;5.32;;;23.00;99.90;;;;;;4852984;29;20477;-81
2021/06/21 02:26:24;;;;;;;7.80;4.30;;;23.10;99.90;;;;;;4861487;29;20427;-80
2021/06/21 02:28:52;;;;;;;7.68;4.57;;;23.00;99.90;;;;;;4865262;29;20474;-78
2021/06/21 02:31:18;;;;;;;5.13;4.63;;;23.00;99.90;;;;;;4869946;29;20773;-81
2021/06/21 02:33:44;;;;;;;4.50;4.00;;;23.00;99.90;;;;;;4854749;29;20494;-83
2021/06/21 02:36:10;;;;;;;7.25;4.45;;;23.00;99.90;;;;;;4853603;29;20524;-80
2021/06/21 02:38:36;;;;;;;4.33;3.93;;;23.10;99.90;;;;;;4877501;29;20493;-82
2021/06/21 02:41:03;;;;;;;4.60;4.18;;;23.00;99.90;;;;;;4867260;29;20417;-80
2021/06/21 02:43:28;;;;;;;4.32;3.92;;;22.90;99.90;;;;;;4868961;29;20410;-80
2021/06/21 02:45:54;;;;;;;7.43;4.13;;;23.00;99.90;;;;;;4866095;29;20441;-81
2021/06/21 02:48:20;;;;;;;4.23;3.83;;;23.10;99.90;;;;;;4864802;29;20462;-83
2021/06/21 02:50:55;;;;;;;6.10;3.70;;;23.00;99.90;;;;;;4880679;29;20925;-80
2021/06/21 02:53:45;;;;;;;4.27;3.80;;;22.80;99.90;;;;;;4858843;29;20466;-80
2021/06/21 02:56:17;;;;;;;4.10;3.60;;;23.00;99.90;;;;;;4865986;29;20403;-80
2021/06/21 02:58:44;;;;;;;4.90;4.07;;;23.10;99.90;;;;;;4874825;29;20778;-81
2021/06/21 03:01:12;;;;;;;4.68;3.97;;;22.90;99.90;;;;;;4863917;29;20498;-80
2021/06/21 03:03:40;;;;;;;5.43;3.67;;;22.90;99.90;;;;;;4857108;29;20411;-80
2021/06/21 03:06:07;;;;;;;4.82;3.75;;;22.90;99.90;;;;;;4867065;29;20426;-81
2021/06/21 03:08:36;;;;;;;4.18;3.78;;;22.90;99.90;;;;;;4890044;29;20428;-80
2021/06/21 03:11:02;;;;;;;4.45;3.85;;;22.90;99.90;;;;;;4889752;29;20467;-81
2021/06/21 03:13:28;;;;;;;3.90;3.30;;;22.80;99.90;;;;;;4874881;29;20428;-80
2021/06/21 03:15:54;;;;;;;4.38;3.97;;;22.80;99.90;;;;;;4832868;29;20415;-81
2021/06/21 03:18:21;;;;;;;6.32;4.20;;;23.00;99.90;;;;;;4887955;29;20415;-81
2021/06/21 03:20:54;;;;;;;4.25;3.85;;;22.70;99.90;;;;;;4840537;29;20423;-80
2021/06/21 03:23:25;;;;;;;5.10;3.83;;;22.70;99.90;;;;;;4846951;29;20457;-81
2021/06/21 03:25:55;;;;;;;6.53;4.60;;;22.70;99.90;;;;;;4874524;29;20438;-83
2021/06/21 03:28:21;;;;;;;4.72;4.05;;;22.70;99.90;;;;;;4867604;29;20427;-80
2021/06/21 03:30:52;;;;;;;5.97;4.50;;;22.70;99.90;;;;;;4860300;29;20422;-82
2021/06/21 03:33:19;;;;;;;4.53;3.60;;;22.70;99.90;;;;;;4870249;29;20416;-79
2021/06/21 03:35:45;;;;;;;6.43;4.90;;;22.70;99.90;;;;;;4857163;29;20426;-80
2021/06/21 03:38:13;;;;;;;4.45;3.72;;;22.70;99.90;;;;;;4871142;29;20420;-81
2021/06/21 03:40:39;;;;;;;4.30;3.90;;;22.80;99.90;;;;;;4868283;29;20405;-80
2021/06/21 03:43:08;;;;;;;5.00;3.70;;;22.60;99.90;;;;;;4849829;29;20924;-79
2021/06/21 03:45:34;;;;;;;3.90;3.50;;;22.70;99.90;;;;;;4866708;29;20489;-81
2021/06/21 03:48:00;;;;;;;3.97;3.30;;;22.80;99.90;;;;;;4833510;29;20395;-80
2021/06/21 03:50:26;;;;;;;5.68;3.72;;;22.80;99.90;;;;;;4853474;29;20460;-84
2021/06/21 03:52:52;;;;;;;5.20;3.72;;;22.80;99.90;;;;;;4871484;29;20413;-80
2021/06/21 03:55:18;;;;;;;4.45;3.85;;;22.80;99.90;;;;;;4864023;29;20411;-80
2021/06/21 03:57:45;;;;;;;4.93;3.70;;;22.80;99.90;;;;;;4851358;29;20412;-80
2021/06/21 04:00:14;;;;;;;3.90;3.60;;;22.80;99.90;;;;;;4855331;29;20499;-79
2021/06/21 04:02:40;;;;;;;7.40;4.20;;;22.80;99.90;;;;;;4870991;29;20395;-77
2021/06/21 04:05:06;;;;;;;4.13;3.77;;;22.80;99.90;;;;;;4868730;29;20800;-79
2021/06/21 04:07:33;;;;;;;4.00;3.60;;;22.90;99.90;;;;;;4858645;29;20433;-78
2021/06/21 04:09:59;;;;;;;4.00;3.60;;;22.90;99.90;;;;;;4876920;29;20411;-80
2021/06/21 04:12:25;;;;;;;4.53;3.80;;;23.00;99.90;;;;;;4873058;29;20412;-81
2021/06/21 04:14:55;;;;;;;4.07;3.67;;;23.00;99.90;;;;;;4870781;29;20421;-81
2021/06/21 04:17:21;;;;;;;4.50;3.77;;;23.00;99.90;;;;;;4877434;29;20520;-78
2021/06/21 04:19:46;;;;;;;5.07;4.40;;;23.10;99.90;;;;;;4862162;29;20449;-79
2021/06/21 04:22:12;;;;;;;5.03;3.90;;;23.40;99.90;;;;;;4880833;29;20934;-80
2021/06/21 04:24:38;;;;;;;4.20;3.80;;;23.40;99.90;;;;;;4860210;29;20417;-80
2021/06/21 04:27:05;;;;;;;4.43;4.03;;;23.50;99.90;;;;;;4875418;29;20389;-79
2021/06/21 04:29:30;;;;;;;5.30;4.10;;;23.60;99.90;;;;;;4864248;29;20392;-81
2021/06/21 04:31:56;;;;;;;3.83;3.53;;;23.70;99.90;;;;;;4858834;29;20425;-82
2021/06/21 04:34:22;;;;;;;4.25;3.80;;;23.70;99.90;;;;;;4864956;29;20406;-80
2021/06/21 04:36:48;;;;;;;5.85;3.70;;;23.90;99.90;;;;;;4850404;29;20426;-79
2021/06/21 04:39:13;;;;;;;4.10;3.70;;;23.90;99.90;;;;;;4870172;29;20410;-79
2021/06/21 04:41:39;;;;;;;3.67;3.37;;;24.20;99.90;;;;;;4863389;29;20433;-79
2021/06/21 04:44:05;;;;;;;5.72;3.90;;;24.20;99.90;;;;;;4866018;29;20415;-78
2021/06/21 04:46:33;;;;;;;4.17;3.87;;;24.30;99.90;;;;;;4890399;29;20419;-79
2021/06/21 04:49:00;;;;;;;7.47;3.90;;;24.30;99.90;;;;;;4875591;29;20408;-80
2021/06/21 04:51:26;;;;;;;4.07;3.58;;;24.30;99.90;;;;;;4883813;29;20407;-80
2021/06/21 04:53:52;;;;;;;4.05;3.58;;;24.50;99.90;;;;;;4860840;29;20401;-78
2021/06/21 04:56:18;;;;;;;4.15;3.75;;;24.70;99.90;;;;;;4876927;29;20407;-79
2021/06/21 04:58:43;;;;;;;4.73;3.90;;;24.80;99.90;;;;;;4855769;29;20417;-79
2021/06/21 05:01:09;;;;;;;5.45;3.47;;;24.80;99.90;;;;;;4882006;29;20415;-79
2021/06/21 05:03:37;;;;;;;4.55;4.10;;;24.80;99.90;;;;;;4889470;29;20471;-79
2021/06/21 05:06:07;;;;;;;3.97;3.40;;;24.90;99.90;;;;;;4853625;29;20416;-79
2021/06/21 05:08:33;;;;;;;5.05;4.28;;;25.00;99.90;;;;;;4864708;29;20400;-78
2021/06/21 05:10:59;;;;;;;4.32;3.92;;;25.10;99.90;;;;;;4876045;29;20478;-78
2021/06/21 05:13:24;;;;;;;5.82;4.30;;;25.30;99.90;;;;;;4862554;29;20411;-78
2021/06/21 05:15:51;;;;;;;5.30;3.97;;;25.30;99.90;;;;;;4860963;29;20433;-78
2021/06/21 05:18:17;;;;;;;4.65;4.18;;;25.50;99.90;;;;;;4891240;29;20402;-78
2021/06/21 05:20:42;;;;;;;4.38;3.55;;;25.60;99.90;;;;;;4874018;29;21008;-78
2021/06/21 05:23:11;;;;;;;5.10;3.43;;;25.80;99.90;;;;;;4869341;29;20467;-77
2021/06/21 05:25:37;;;;;;;4.00;3.60;;;25.70;99.90;;;;;;4865168;29;20413;-78
2021/06/21 05:28:03;;;;;;;3.87;3.57;;;25.90;99.90;;;;;;4880019;29;20826;-78
2021/06/21 05:30:29;;;;;;;4.75;3.47;;;25.80;99.90;;;;;;4880684;29;20435;-78
2021/06/21 05:32:55;;;;;;;5.55;4.05;;;26.20;99.90;;;;;;4886009;29;20915;-81
2021/06/21 05:35:21;;;;;;;3.83;3.53;;;26.30;99.90;;;;;;4861382;29;20410;-79
2021/06/21 05:37:49;;;;;;;3.83;3.27;;;26.40;99.90;;;;;;4859905;29;20441;-82
2021/06/21 05:40:16;;;;;;;3.28;2.97;;;26.50;99.90;;;;;;4854876;29;21162;-78
2021/06/21 05:42:41;;;;;;;3.33;3.13;;;26.60;99.90;;;;;;4866834;29;20425;-78
2021/06/21 05:45:07;;;;;;;3.20;2.90;;;26.80;99.90;;;;;;4881252;29;20415;-79
2021/06/21 05:47:33;;;;;;;3.97;3.50;;;26.80;99.90;;;;;;4888422;29;20427;-79
2021/06/21 05:50:00;;;;;;;3.53;3.20;;;26.80;99.90;;;;;;4872257;29;20409;-79
2021/06/21 05:52:26;;;;;;;3.58;3.28;;;26.80;99.90;;;;;;4867429;29;20454;-79
2021/06/21 05:54:58;;;;;;;3.67;2.78;;;26.90;99.90;;;;;;4852828;29;20908;-78
2021/06/21 05:57:26;;;;;;;3.10;2.90;;;27.00;99.90;;;;;;4873916;29;20407;-79
2021/06/21 05:59:51;;;;;;;3.47;3.05;;;27.20;99.90;;;;;;4874982;29;20784;-79
2021/06/21 06:02:18;;;;;;;4.03;3.20;;;27.10;99.90;;;;;;4876623;29;20471;-80
2021/06/21 06:04:43;;;;;;;3.80;2.90;;;27.20;99.90;;;;;;4876213;29;20486;-79
2021/06/21 06:07:09;;;;;;;7.47;3.40;;;27.30;99.90;;;;;;4853581;29;20454;-79
2021/06/21 06:09:35;;;;;;;4.78;3.78;;;27.40;99.90;;;;;;4875102;29;20418;-79
2021/06/21 06:12:01;;;;;;;3.47;3.17;;;27.30;99.90;;;;;;4878255;29;21026;-79
2021/06/21 06:14:26;;;;;;;4.03;3.53;;;27.40;99.90;;;;;;4861421;29;20421;-79
2021/06/21 06:16:54;;;;;;;3.40;3.10;;;27.50;99.90;;;;;;4876047;29;20405;-79
2021/06/21 06:19:20;;;;;;;3.65;3.17;;;27.40;99.90;;;;;;4871515;29;20390;-79
2021/06/21 06:21:46;;;;;;;3.50;3.15;;;27.50;99.90;;;;;;4882747;29;20784;-79
2021/06/21 06:24:13;;;;;;;3.90;3.50;;;27.70;99.90;;;;;;4872297;29;20414;-79
2021/06/21 06:26:42;;;;;;;3.45;2.70;;;27.70;99.90;;;;;;4844043;29;20416;-80
2021/06/21 06:29:08;;;;;;;4.95;4.00;;;27.90;99.90;;;;;;4871252;29;20536;-81
2021/06/21 06:31:34;;;;;;;3.72;3.13;;;28.00;99.90;;;;;;4861284;29;21111;-81
2021/06/21 06:33:59;;;;;;;3.93;3.63;;;27.90;99.90;;;;;;4885302;29;20414;-79
2021/06/21 06:36:25;;;;;;;4.17;3.70;;;28.00;99.90;;;;;;4842517;29;20498;-79
2021/06/21 06:38:51;;;;;;;5.10;3.60;;;28.20;99.90;;;;;;4865402;29;20418;-79
2021/06/21 06:41:16;;;;;;;3.92;3.63;;;28.30;99.90;;;;;;4877955;29;20441;-81
2021/06/21 06:43:42;;;;;;;3.70;3.40;;;28.40;99.90;;;;;;4854636;29;20413;-81
2021/06/21 06:46:09;;;;;;;4.33;3.30;;;28.40;99.90;;;;;;4863278;29;20433;-80
2021/06/21 06:48:34;;;;;;;4.82;3.55;;;28.60;99.90;;;;;;4866953;29;20420;-79
2021/06/21 06:51:00;;;;;;;7.57;3.70;;;28.90;99.90;;;;;;4864928;29;20431;-79
2021/06/21 06:53:33;;;;;;;4.80;3.83;;;29.00;99.90;;;;;;4878274;29;20415;-80
2021/06/21 06:58:42;;;;;;;4.55;4.03;;;29.50;99.90;;;;;;4896310;29;20443;-80
2021/06/21 07:01:08;;;;;;;4.78;4.28;;;29.80;99.90;;;;;;4869519;29;20400;-84
2021/06/21 07:03:34;;;;;;;4.70;4.20;;;30.00;99.90;;;;;;4844907;29;20512;-81
2021/06/21 07:05:59;;;;;;;7.37;4.00;;;30.00;99.90;;;;;;4864812;29;20430;-82
2021/06/21 07:08:25;;;;;;;7.10;4.20;;;29.90;99.90;;;;;;4874176;29;20416;-82
2021/06/21 07:10:51;;;;;;;5.78;4.70;;;29.90;99.90;;;;;;4866112;29;20431;-89
2021/06/21 07:13:16;;;;;;;4.60;4.20;;;30.00;99.90;;;;;;4872222;29;20450;-82
2021/06/21 07:15:42;;;;;;;6.00;4.13;;;29.80;99.90;;;;;;4866171;29;20508;-82
2021/06/21 07:18:08;;;;;;;6.97;4.33;;;30.10;99.90;;;;;;4848595;29;20473;-81
2021/06/21 07:20:34;;;;;;;5.60;4.25;;;30.30;99.90;;;;;;4879883;29;20408;-81
2021/06/21 07:22:59;;;;;;;7.90;4.20;;;30.30;99.90;;;;;;4849089;29;20473;-80
2021/06/21 07:25:25;;;;;;;6.37;4.07;;;30.40;99.90;;;;;;4849380;29;20405;-81
2021/06/21 07:27:51;;;;;;;3.93;3.50;;;30.40;99.90;;;;;;4847326;29;20414;-81
2021/06/21 07:30:17;;;;;;;4.60;4.20;;;30.70;99.90;;;;;;4857990;29;20423;-81
2021/06/21 07:32:43;;;;;;;5.70;4.37;;;30.90;99.90;;;;;;4859842;29;20407;-81
2021/06/21 07:35:08;;;;;;;5.88;4.05;;;31.10;99.90;;;;;;4844929;29;20407;-87
2021/06/21 07:37:34;;;;;;;4.20;3.65;;;31.30;99.90;;;;;;4881533;29;20463;-87
2021/06/21 07:40:00;;;;;;;5.00;4.20;;;31.50;99.90;;;;;;4854300;29;20429;-81
2021/06/21 07:42:25;;;;;;;5.17;3.77;;;31.20;99.90;;;;;;4867933;29;20499;-79
2021/06/21 07:44:51;;;;;;;4.15;3.75;;;31.30;99.90;;;;;;4862815;29;20446;-80
2021/06/21 07:47:17;;;;;;;3.90;3.60;;;31.40;99.90;;;;;;4858541;29;20433;-82
2021/06/21 07:49:42;;;;;;;4.47;4.15;;;31.20;99.90;;;;;;4876436;29;20407;-82
2021/06/21 07:52:08;;;;;;;4.22;3.83;;;31.40;99.90;;;;;;4881323;29;20539;-80
2021/06/21 07:54:34;;;;;;;4.73;3.93;;;31.70;99.90;;;;;;4859159;29;20407;-80
2021/06/21 07:56:59;;;;;;;5.90;4.10;;;32.10;99.90;;;;;;4884512;29;20399;-80
2021/06/21 07:59:25;;;;;;;5.85;4.10;;;32.50;99.90;;;;;;4868402;29;20415;-81
2021/06/21 08:01:51;;;;;;;5.13;4.20;;;32.60;99.90;;;;;;4881983;29;20421;-81
2021/06/21 08:04:17;;;;;;;4.90;3.83;;;32.80;99.90;;;;;;4860027;29;20390;-80
2021/06/21 08:06:42;;;;;;;4.30;3.90;;;33.00;99.90;;;;;;4898492;29;20433;-82
2021/06/21 08:09:08;;;;;;;4.55;4.07;;;33.20;99.90;;;;;;4852486;29;20407;-83
2021/06/21 08:11:34;;;;;;;4.30;3.75;;;33.30;99.90;;;;;;4857727;29;20406;-81
2021/06/21 08:13:59;;;;;;;4.95;4.30;;;33.40;99.90;;;;;;4857202;29;20526;-85
2021/06/21 08:16:26;;;;;;;4.63;4.20;;;33.30;99.90;;;;;;4857608;29;20402;-81
2021/06/21 08:18:52;;;;;;;4.70;4.00;;;33.50;99.90;;;;;;4844659;29;20500;-81
2021/06/21 08:21:17;;;;;;;5.73;3.87;;;33.80;99.90;;;;;;4005305;29;10001343;-81
2021/06/21 08:23:43;;;;;;;4.67;3.87;;;33.30;99.90;;;;;;4030301;29;10001447;-80
2021/06/21 08:26:10;;;;;;;6.25;4.07;;;33.30;99.90;;;;;;4865199;29;20437;-80
2021/06/21 08:28:35;;;;;;;4.95;4.18;;;33.40;99.90;;;;;;4841937;29;20490;-80
2021/06/21 08:31:01;;;;;;;4.15;3.75;;;33.60;99.90;;;;;;4871596;29;21206;-80
2021/06/21 08:33:27;;;;;;;3.87;3.53;;;34.00;99.90;;;;;;4853058;29;20446;-79
2021/06/21 08:35:53;;;;;;;4.40;4.00;;;34.30;99.90;;;;;;4868928;29;20408;-80
2021/06/21 08:38:19;;;;;;;4.13;3.70;;;34.70;99.90;;;;;;4856829;29;20406;-83
2021/06/21 08:40:44;;;;;;;5.90;4.23;;;34.90;99.90;;;;;;4860902;29;20476;-82
2021/06/21 08:43:10;;;;;;;5.23;3.97;;;35.00;99.90;;;;;;4861067;29;20429;-80
2021/06/21 08:45:36;;;;;;;4.65;3.97;;;34.80;99.80;;;;;;4874257;29;20421;-80
2021/06/21 08:48:08;;;;;;;4.63;3.63;;;34.90;99.90;;;;;;4872034;29;20945;-80
2021/06/21 08:50:34;;;;;;;4.80;3.95;;;35.10;99.90;;;;;;4849629;29;20413;-81
2021/06/21 08:53:00;;;;;;;4.45;4.05;;;35.20;99.70;;;;;;4861860;29;20414;-81
2021/06/21 08:55:25;;;;;;;4.82;4.00;;;35.60;99.40;;;;;;4865377;29;20466;-81
2021/06/21 08:57:51;;;;;;;3.90;3.60;;;35.80;99.30;;;;;;4858988;29;20433;-83
2021/06/21 09:00:18;;;;;;;4.67;3.70;;;36.00;99.10;;;;;;4878369;29;20411;-80
2021/06/21 09:02:47;;;;;;;5.10;4.07;;;36.30;97.00;;;;;;4884129;29;21105;-84
2021/06/21 09:05:12;;;;;;;3.88;3.58;;;36.40;96.30;;;;;;4868615;29;20423;-84
2021/06/21 09:07:41;;;;;;;5.82;4.43;;;36.30;95.20;;;;;;4859775;29;20407;-83
2021/06/21 09:10:29;;;;;;;5.80;4.00;;;36.10;96.60;;;;;;4865804;29;20421;-82
2021/06/21 09:13:10;;;;;;;5.20;3.90;;;36.00;94.80;;;;;;4887852;29;20429;-83
2021/06/21 09:15:38;;;;;;;4.30;3.40;;;36.10;95.60;;;;;;4884701;29;20430;-81
2021/06/21 09:18:25;;;;;;;4.15;3.50;;;36.20;94.80;;;;;;4848007;29;20448;-83
2021/06/21 09:21:11;;;;;;;4.15;3.72;;;36.10;94.80;;;;;;4878931;29;20427;-84
2021/06/21 09:23:37;;;;;;;4.07;3.58;;;35.80;93.50;;;;;;4864069;29;20428;-81
2021/06/21 09:26:19;;;;;;;3.63;3.33;;;35.50;95.90;;;;;;4868554;29;20500;-83
2021/06/21 09:28:45;;;;;;;5.07;3.72;;;35.50;95.50;;;;;;4875386;29;20426;-82
2021/06/21 09:31:11;;;;;;;6.82;3.80;;;35.30;95.00;;;;;;4879126;29;20921;-81
2021/06/21 09:33:37;;;;;;;3.93;3.50;;;34.90;94.70;;;;;;4849541;29;20461;-84
2021/06/21 09:36:03;;;;;;;5.68;3.45;;;34.70;96.70;;;;;;4864308;29;20822;-84
2021/06/21 09:38:28;;;;;;;3.75;3.35;;;34.70;96.50;;;;;;4873959;29;20486;-81
2021/06/21 09:40:55;;;;;;;4.83;3.30;;;34.70;96.30;;;;;;4864482;29;20400;-80
2021/06/21 09:43:29;;;;;;;3.87;3.57;;;34.80;96.70;;;;;;4855701;29;20472;-83
2021/06/21 09:46:14;;;;;;;3.53;3.22;;;34.60;95.70;;;;;;4855802;29;20423;-81
2021/06/21 09:48:50;;;;;;;3.65;3.35;;;34.50;96.00;;;;;;4857769;29;20478;-80
2021/06/21 09:51:24;;;;;;;4.88;3.60;;;34.10;96.20;;;;;;4856975;29;20429;-80
2021/06/21 09:54:01;;;;;;;4.07;3.35;;;33.80;96.30;;;;;;4891959;29;20399;-81
2021/06/21 09:56:30;;;;;;;4.13;3.72;;;33.50;97.40;;;;;;4883548;29;20646;-84
2021/06/21 09:58:56;;;;;;;3.80;3.30;;;33.30;97.70;;;;;;4888481;29;20435;-81
2021/06/21 10:01:26;;;;;;;3.60;3.30;;;33.30;98.10;;;;;;4876803;29;20411;-83
2021/06/21 10:03:52;;;;;;;4.05;2.97;;;33.20;97.40;;;;;;4852529;29;20421;-81
2021/06/21 10:06:17;;;;;;;3.87;3.43;;;33.30;97.80;;;;;;4843047;29;20508;-90
2021/06/21 10:08:52;;;;;;;3.58;3.28;;;33.30;97.60;;;;;;4866340;29;20464;-81
2021/06/21 10:11:31;;;;;;;3.33;3.07;;;33.40;97.90;;;;;;4857008;29;20407;-81
2021/06/21 10:13:57;;;;;;;3.60;3.22;;;33.10;97.60;;;;;;4878434;29;20403;-81
2021/06/21 10:16:23;;;;;;;3.65;3.17;;;33.00;98.20;;;;;;4872352;29;20437;-82
2021/06/21 10:18:49;;;;;;;3.22;2.92;;;32.90;98.40;;;;;;4871917;29;20399;-80
2021/06/21 10:21:15;;;;;;;3.50;3.20;;;32.90;98.80;;;;;;4869218;29;20417;-82
2021/06/21 10:23:40;;;;;;;3.28;2.97;;;32.90;98.40;;;;;;4864401;29;20422;-82
2021/06/21 10:26:07;;;;;;;3.55;2.83;;;32.80;97.60;;;;;;4850777;29;20409;-83
2021/06/21 10:28:33;;;;;;;3.30;3.00;;;32.60;99.50;;;;;;4867531;29;20417;-82
2021/06/21 10:30:59;;;;;;;3.35;3.05;;;32.60;99.60;;;;;;4838626;29;20417;-80
2021/06/21 10:33:25;;;;;;;2.67;2.47;;;32.60;98.70;;;;;;4865700;29;20406;-80
2021/06/21 10:35:57;;;;;;;2.60;2.40;;;32.70;99.10;;;;;;4863652;29;20928;-80
2021/06/21 10:38:22;;;;;;;2.72;2.42;;;32.60;98.50;;;;;;4865708;29;21133;-82
2021/06/21 10:40:53;;;;;;;3.05;2.50;;;32.80;98.60;;;;;;4862687;29;20407;-81
2021/06/21 10:43:53;;;;;;;7.00;2.83;;;33.10;99.90;;;;;;4879946;29;20430;-81
2021/06/21 10:46:23;;;;;;;2.60;2.40;;;33.30;98.60;;;;;;4851279;29;20420;-82
2021/06/21 10:49:20;;;;;;;2.78;2.50;;;33.70;99.20;;;;;;4884482;29;20850;-84
2021/06/21 10:51:46;;;;;;;3.00;2.60;;;33.90;96.20;;;;;;4866495;29;20420;-80
2021/06/21 10:54:24;;;;;;;3.57;2.30;;;34.00;96.40;;;;;;4892752;29;20415;-80
2021/06/21 10:56:52;;;;;;;3.17;2.70;;;33.90;97.10;;;;;;4886375;29;20914;-80
2021/06/21 10:59:19;;;;;;;2.65;2.45;;;34.00;96.90;;;;;;4871725;29;20413;-81
2021/06/21 11:01:46;;;;;;;2.53;2.33;;;34.30;96.10;;;;;;4885293;29;20398;-80
2021/06/21 11:04:32;;;;;;;2.75;2.50;;;34.70;95.90;;;;;;4882799;29;20480;-80
2021/06/21 11:07:10;;;;;;;2.33;2.13;;;34.80;96.00;;;;;;4885026;29;20428;-82
2021/06/21 11:09:44;;;;;;;3.53;2.70;;;35.00;93.50;;;;;;4885232;29;20397;-84
2021/06/21 11:12:22;;;;;;;5.43;2.70;;;35.10;93.90;;;;;;4872848;29;20924;-83
2021/06/21 11:15:14;;;;;;;2.72;2.53;;;35.60;93.00;;;;;;4892723;29;21137;-80
2021/06/21 11:17:43;;;;;;;4.80;2.40;;;35.50;93.00;;;;;;4868489;29;20407;-84
2021/06/21 11:20:40;;;;;;;2.58;2.38;;;35.20;92.90;;;;;;4915438;29;20397;-81
2021/06/21 11:23:10;;;;;;;2.50;2.30;;;35.00;93.60;;;;;;4880813;29;20422;-85
2021/06/21 11:25:44;;;;;;;3.40;2.60;;;35.20;92.90;;;;;;4866087;29;20437;-84
2021/06/21 11:28:38;;;;;;;2.97;2.78;;;35.20;92.50;;;;;;4890040;29;20431;-80
2021/06/21 11:31:19;;;;;;;4.43;3.00;;;35.30;92.00;;;;;;4867580;29;20495;-80
2021/06/21 11:33:56;;;;;;;2.67;2.47;;;35.20;91.80;;;;;;4884542;29;20464;-83
2021/06/21 11:36:47;;;;;;;2.53;2.33;;;35.70;92.20;;;;;;4889769;29;20811;-80
2021/06/21 11:39:29;;;;;;;3.10;2.80;;;36.00;90.80;;;;;;4878199;29;20407;-81
2021/06/21 11:41:59;;;;;;;3.35;2.90;;;36.00;87.50;;;;;;4860265;29;20419;-79
2021/06/21 11:44:37;;;;;;;2.75;2.55;;;35.90;88.80;;;;;;4877026;29;20965;-79
2021/06/21 11:47:28;;;;;;;3.30;2.83;;;36.20;90.00;;;;;;4888362;29;20421;-80
2021/06/21 11:49:55;;;;;;;3.60;3.00;;;36.80;89.30;;;;;;4864777;29;20425;-79
2021/06/21 11:52:26;;;;;;;21.15;5.50;;;37.10;87.60;;;;;;4869502;29;20416;-80
2021/06/21 11:54:52;;;;;;;3.90;2.85;;;37.30;87.50;;;;;;4869960;29;20399;-79
2021/06/21 11:57:19;;;;;;;2.90;2.40;;;37.70;83.90;;;;;;4867974;29;20403;-82
2021/06/21 11:59:46;;;;;;;2.50;2.30;;;38.00;83.20;;;;;;4889529;29;20483;-80
2021/06/21 12:02:18;;;;;;;2.88;2.30;;;38.20;82.60;;;;;;4848350;29;20497;-79
2021/06/21 12:04:45;;;;;;;2.63;2.10;;;38.10;80.60;;;;;;4869926;29;20405;-81
2021/06/21 12:07:27;;;;;;;4.93;2.15;;;38.10;79.10;;;;;;4878250;29;20409;-81
2021/06/21 12:09:53;;;;;;;4.40;2.40;;;38.50;78.70;;;;;;4885667;29;20418;-83
2021/06/21 12:12:26;;;;;;;2.63;2.05;;;38.80;75.10;;;;;;4883832;29;20925;-78
2021/06/21 12:14:52;;;;;;;1.90;1.80;;;39.20;74.20;;;;;;4865398;29;20402;-80
2021/06/21 12:17:22;;;;;;;2.95;2.15;;;39.70;77.70;;;;;;4878108;29;20403;-80
2021/06/21 12:20:05;;;;;;;2.15;1.90;;;39.70;73.00;;;;;;4877070;29;21172;-80
2021/06/21 12:22:30;;;;;;;2.78;2.28;;;39.80;70.60;;;;;;4886962;29;20402;-81
2021/06/21 12:24:56;;;;;;;3.92;1.95;;;39.70;70.50;;;;;;4863643;29;20531;-85
2021/06/21 12:27:22;;;;;;;1.80;1.70;;;40.00;62.80;;;;;;4876940;29;20432;-80
2021/06/21 12:29:47;;;;;;;1.73;1.63;;;39.60;64.50;;;;;;4873079;29;20445;-80
2021/06/21 12:32:14;;;;;;;1.70;1.60;;;39.90;64.90;;;;;;4863456;29;20419;-80
2021/06/21 12:34:46;;;;;;;1.98;1.63;;;40.10;59.60;;;;;;4869402;29;20411;-81
2021/06/21 12:37:15;;;;;;;1.70;1.60;;;40.20;58.50;;;;;;4878523;29;20395;-83
2021/06/21 12:39:41;;;;;;;1.70;1.55;;;40.10;59.10;;;;;;4872738;29;20403;-83
2021/06/21 12:42:15;;;;;;;5.07;1.80;;;40.30;59.40;;;;;;4883557;29;20977;-80
2021/06/21 12:44:41;;;;;;;1.47;1.37;;;40.10;58.80;;;;;;4865284;29;20490;-81
2021/06/21 12:47:23;;;;;;;2.10;1.70;;;40.10;58.90;;;;;;4884986;29;20443;-84
2021/06/21 12:49:50;;;;;;;2.30;1.27;;;39.70;59.10;;;;;;4866791;29;20435;-82
2021/06/21 12:52:17;;;;;;;1.35;1.25;;;39.40;59.80;;;;;;4870719;29;20469;-84
2021/06/21 12:54:43;;;;;;;1.23;1.13;;;39.40;56.20;;;;;;4888562;29;20401;-81
2021/06/21 12:57:08;;;;;;;1.43;1.33;;;39.40;59.20;;;;;;4876247;29;20418;-83